createdAt,value
2019-04-14T00:00:57.577Z,100003.00
2019-04-14T00:03:10.829Z,100000.00
2019-04-14T00:05:16.919Z,100005.00
2019-04-14T00:07:23.091Z,100005.00
2019-04-14T00:09:29.358Z,100002.00
2019-04-14T00:11:41.581Z,99996.00
2019-04-14T00:13:47.873Z,99997.00
2019-04-14T00:15:54.930Z,99993.00
2019-04-14T00:18:01.016Z,99990.00
2019-04-14T00:20:07.382Z,99996.00
2019-04-14T00:22:12.687Z,99992.00
2019-04-14T00:24:18.449Z,99986.00
2019-04-14T00:26:31.354Z,99982.00
2019-04-14T00:28:36.835Z,99988.00
2019-04-14T00:30:42.606Z,99986.00
2019-04-14T00:32:57.539Z,99983.00
2019-04-14T00:35:12.541Z,99980.00
2019-04-14T00:37:33.713Z,99979.00
2019-04-14T00:39:42.234Z,99972.00
2019-04-14T00:42:03.048Z,99974.00
2019-04-14T00:44:31.934Z,99968.00
2019-04-14T00:46:41.334Z,99972.00
2019-04-14T00:48:48.014Z,99960.00
2019-04-14T00:50:53.944Z,99964.00
2019-04-14T00:52:59.760Z,99967.00
2019-04-14T00:55:05.399Z,99969.00
2019-04-14T00:57:11.558Z,99975.00
2019-04-14T00:59:17.939Z,99981.00
2019-04-14T01:01:24.498Z,99978.00
2019-04-14T01:03:31.057Z,99982.00
2019-04-14T01:05:37.522Z,99981.00
2019-04-14T01:07:45.492Z,99977.00
2019-04-14T01:09:51.612Z,99982.00
2019-04-14T01:11:57.417Z,99972.00
2019-04-14T01:14:03.720Z,99981.00
2019-04-14T01:16:15.403Z,99976.00
2019-04-14T01:18:16.856Z,99972.00
2019-04-14T01:20:23.214Z,99973.00
2019-04-14T01:22:29.253Z,99976.00
2019-04-14T01:24:34.438Z,99974.00
2019-04-14T01:26:40.024Z,99975.00
2019-04-14T01:28:46.149Z,99969.00
2019-04-14T01:30:52.295Z,99965.00
2019-04-14T01:32:58.836Z,99973.00
2019-04-14T01:35:05.341Z,99972.00
2019-04-14T01:37:11.536Z,99969.00
2019-04-14T01:39:17.671Z,99970.00
2019-04-14T01:41:23.951Z,99971.00
2019-04-14T01:43:29.963Z,99979.00
2019-04-14T01:45:35.992Z,99967.00
2019-04-14T01:47:42.063Z,99967.00
2019-04-14T01:49:48.490Z,99977.00
2019-04-14T01:52:18.907Z,99973.00
2019-04-14T01:54:38.895Z,99968.00
2019-04-14T01:56:53.643Z,99968.00
2019-04-14T01:58:59.998Z,99980.00
2019-04-14T02:01:12.815Z,99968.00
2019-04-14T02:03:19.474Z,99976.00
2019-04-14T02:05:25.688Z,99981.00
2019-04-14T02:07:31.923Z,99978.00
2019-04-14T02:09:37.926Z,99981.00
2019-04-14T02:11:44.422Z,99969.00
2019-04-14T02:13:50.873Z,99979.00
2019-04-14T02:15:57.332Z,99981.00
2019-04-14T02:18:03.234Z,99985.00
2019-04-14T02:20:09.933Z,99981.00
2019-04-14T02:22:15.968Z,99987.00
2019-04-14T02:24:22.103Z,99982.00
2019-04-14T02:26:28.669Z,99985.00
2019-04-14T02:28:35.276Z,99978.00
2019-04-14T02:30:51.265Z,99977.00
2019-04-14T02:33:17.764Z,99982.00
2019-04-14T02:35:20.929Z,99980.00
2019-04-14T02:37:30.117Z,99983.00
2019-04-14T02:39:45.936Z,99982.00
2019-04-14T02:41:50.787Z,99986.00
2019-04-14T02:43:51.136Z,99990.00
2019-04-14T02:45:57.055Z,99991.00
2019-04-14T02:50:11.030Z,99993.00
2019-04-14T02:54:42.381Z,99989.00
2019-04-14T02:56:30.979Z,99988.00
2019-04-14T03:00:50.975Z,99979.00
2019-04-14T03:02:48.798Z,99972.00
2019-04-14T03:05:10.194Z,99980.00
2019-04-14T03:07:16.172Z,99969.00
2019-04-14T03:09:35.041Z,99968.00
2019-04-14T03:11:28.660Z,99962.00
2019-04-14T03:13:29.311Z,99964.00
2019-04-14T03:18:26.399Z,99975.00
2019-04-14T03:20:39.610Z,99968.00
2019-04-14T03:22:51.415Z,99970.00
2019-04-14T03:25:06.178Z,99970.00
2019-04-14T03:27:49.845Z,99986.00
2019-04-14T03:29:58.347Z,99973.00
2019-04-14T03:40:33.766Z,99982.00
2019-04-14T03:42:48.547Z,99980.00
2019-04-14T03:47:00.793Z,99980.00
2019-04-14T03:49:19.749Z,99988.00
2019-04-14T03:51:17.478Z,99992.00
2019-04-14T03:55:12.940Z,99983.00
2019-04-14T03:57:04.103Z,99980.00
2019-04-14T03:59:09.158Z,99983.00
2019-04-14T04:01:15.146Z,99978.00
2019-04-14T04:03:21.823Z,99983.00
2019-04-14T04:05:28.024Z,99974.00
2019-04-14T04:07:32.923Z,99982.00
2019-04-14T04:09:43.331Z,99983.00
2019-04-14T04:11:49.844Z,99983.00
2019-04-14T04:13:56.364Z,99979.00
2019-04-14T04:16:20.217Z,99986.00
2019-04-14T04:18:26.962Z,99975.00
2019-04-14T04:20:57.093Z,99989.00
2019-04-14T04:23:25.029Z,99980.00
2019-04-14T04:25:39.982Z,99982.00
2019-04-14T04:28:12.967Z,99986.00
2019-04-14T04:30:25.384Z,99990.00
2019-04-14T04:32:44.861Z,99992.00
2019-04-14T04:35:09.281Z,99997.00
2019-04-14T04:37:41.173Z,99997.00
2019-04-14T04:39:47.586Z,100005.00
2019-04-14T04:41:53.759Z,99992.00
2019-04-14T04:44:00.661Z,100000.00
2019-04-14T04:46:06.898Z,100005.00
2019-04-14T04:48:13.151Z,99996.00
2019-04-14T04:50:19.323Z,100014.00
2019-04-14T04:52:25.754Z,100019.00
2019-04-14T04:54:31.896Z,100012.00
2019-04-14T04:56:38.345Z,100017.00
2019-04-14T04:58:43.528Z,100018.00
2019-04-14T05:00:51.461Z,100025.00
2019-04-14T05:02:57.103Z,100012.00
2019-04-14T05:05:03.486Z,100026.00
2019-04-14T05:07:09.942Z,100018.00
2019-04-14T05:09:25.281Z,100015.00
2019-04-14T05:11:38.927Z,100019.00
2019-04-14T05:13:46.808Z,100027.00
2019-04-14T05:15:57.881Z,100023.00
2019-04-14T05:18:03.092Z,100026.00
2019-04-14T05:20:09.436Z,100029.00
2019-04-14T05:22:17.694Z,100028.00
2019-04-14T05:24:22.200Z,100037.00
2019-04-14T05:26:28.664Z,100027.00
2019-04-14T05:28:35.190Z,100030.00
2019-04-14T05:30:41.515Z,100029.00
2019-04-14T05:32:47.721Z,100037.00
2019-04-14T05:34:54.306Z,100034.00
2019-04-14T05:37:00.681Z,100042.00
2019-04-14T05:39:07.246Z,100045.00
2019-04-14T05:41:13.614Z,100036.00
2019-04-14T05:43:30.373Z,100043.00
2019-04-14T05:45:26.314Z,100046.00
2019-04-14T05:47:32.607Z,100041.00
2019-04-14T05:49:44.240Z,100051.00
2019-04-14T05:51:45.851Z,100043.00
2019-04-14T05:53:52.269Z,100047.00
2019-04-14T05:55:57.676Z,100046.00
2019-04-14T05:58:03.618Z,100041.00
2019-04-14T06:00:12.502Z,100047.00
2019-04-14T06:02:18.072Z,100050.00
2019-04-14T06:04:24.319Z,100040.00
2019-04-14T06:06:29.531Z,100053.00
2019-04-14T06:08:34.868Z,100052.00
2019-04-14T06:10:40.353Z,100054.00
2019-04-14T06:12:45.874Z,100045.00
2019-04-14T06:14:51.329Z,100054.00
2019-04-14T06:16:56.296Z,100053.00
2019-04-14T06:19:01.755Z,100051.00
2019-04-14T06:21:07.735Z,100057.00
2019-04-14T06:23:13.307Z,100063.00
2019-04-14T06:25:18.399Z,100062.00
2019-04-14T06:27:23.967Z,100057.00
2019-04-14T06:29:29.709Z,100066.00
2019-04-14T06:31:50.262Z,100065.00
2019-04-14T06:34:14.463Z,100073.00
2019-04-14T06:36:37.859Z,100070.00
2019-04-14T06:38:45.553Z,100062.00
2019-04-14T06:40:55.942Z,100069.00
2019-04-14T06:43:01.373Z,100066.00
2019-04-14T06:45:06.842Z,100069.00
2019-04-14T06:47:12.415Z,100066.00
2019-04-14T06:49:17.747Z,100078.00
2019-04-14T06:51:22.944Z,100075.00
2019-04-14T06:53:28.463Z,100068.00
2019-04-14T06:55:34.126Z,100075.00
2019-04-14T06:57:40.025Z,100081.00
2019-04-14T06:59:45.750Z,100077.00
2019-04-14T07:01:51.001Z,100065.00
2019-04-14T07:03:56.406Z,100074.00
2019-04-14T07:06:01.515Z,100066.00
2019-04-14T07:08:06.821Z,100061.00
2019-04-14T07:10:12.264Z,100065.00
2019-04-14T07:12:17.547Z,100074.00
2019-04-14T07:14:23.082Z,100080.00
2019-04-14T07:16:28.516Z,100066.00
2019-04-14T07:18:33.616Z,100078.00
2019-04-14T07:20:38.951Z,100075.00
2019-04-14T07:22:44.625Z,100076.00
2019-04-14T07:24:50.290Z,100092.00
2019-04-14T07:26:55.803Z,100090.00
2019-04-14T07:29:01.142Z,100095.00
2019-04-14T07:31:16.982Z,100092.00
2019-04-14T07:33:47.642Z,100100.00
2019-04-14T07:36:12.089Z,100104.00
2019-04-14T07:38:25.335Z,100094.00
2019-04-14T07:40:48.801Z,100100.00
2019-04-14T07:43:16.193Z,100100.00
2019-04-14T07:45:28.467Z,100093.00
2019-04-14T07:47:37.889Z,100091.00
2019-04-14T07:50:14.098Z,100093.00
2019-04-14T07:52:40.663Z,100091.00
2019-04-14T07:54:55.372Z,100099.00
2019-04-14T07:57:25.695Z,100099.00
2019-04-14T07:59:38.377Z,100100.00
2019-04-14T08:01:55.371Z,100097.00
2019-04-14T08:04:15.735Z,100094.00
2019-04-14T08:06:21.550Z,100083.00
2019-04-14T08:08:26.777Z,100087.00
2019-04-14T08:10:32.347Z,100090.00
2019-04-14T08:12:37.509Z,100087.00
2019-04-14T08:14:42.907Z,100095.00
2019-04-14T08:16:48.321Z,100088.00
2019-04-14T08:18:53.961Z,100093.00
2019-04-14T08:20:59.297Z,100080.00
2019-04-14T08:23:04.388Z,100085.00
2019-04-14T08:25:09.633Z,100073.00
2019-04-14T08:27:15.180Z,100089.00
2019-04-14T08:29:20.553Z,100086.00
2019-04-14T08:31:25.651Z,100092.00
2019-04-14T08:33:31.039Z,100091.00
2019-04-14T08:35:36.617Z,100091.00
2019-04-14T08:37:42.343Z,100086.00
2019-04-14T08:39:48.039Z,100089.00
2019-04-14T08:42:13.230Z,100086.00
2019-04-14T08:44:24.751Z,100075.00
2019-04-14T08:46:42.775Z,100087.00
2019-04-14T08:48:56.014Z,100094.00
2019-04-14T08:51:05.033Z,100088.00
2019-04-14T08:53:32.150Z,100086.00
2019-04-14T08:55:53.562Z,100083.00
2019-04-14T08:58:27.189Z,100083.00
2019-04-14T09:00:52.748Z,100091.00
2019-04-14T09:03:16.467Z,100088.00
2019-04-14T09:05:40.309Z,100095.00
2019-04-14T09:07:56.470Z,100085.00
2019-04-14T09:10:06.674Z,100086.00
2019-04-14T09:12:21.447Z,100083.00
2019-04-14T09:14:27.021Z,100093.00
2019-04-14T09:16:32.199Z,100098.00
2019-04-14T09:18:37.640Z,100094.00
2019-04-14T09:20:52.213Z,100100.00
2019-04-14T09:22:50.717Z,100109.00
2019-04-14T09:24:56.167Z,100095.00
2019-04-14T09:27:01.592Z,100094.00
2019-04-14T09:29:06.795Z,100100.00
2019-04-14T09:31:12.764Z,100099.00
2019-04-14T09:33:18.099Z,100098.00
2019-04-14T09:35:23.186Z,100107.00
2019-04-14T09:37:28.568Z,100117.00
2019-04-14T09:39:33.570Z,100102.00
2019-04-14T09:41:38.699Z,100104.00
2019-04-14T09:43:43.907Z,100107.00
2019-04-14T09:45:49.345Z,100103.00
2019-04-14T09:47:55.079Z,100100.00
2019-04-14T09:50:00.776Z,100101.00
2019-04-14T09:52:07.681Z,100100.00
2019-04-14T09:54:13.165Z,100101.00
2019-04-14T09:56:18.187Z,100106.00
2019-04-14T09:58:23.564Z,100098.00
2019-04-14T10:00:29.407Z,100101.00
2019-04-14T10:02:35.298Z,100099.00
2019-04-14T10:04:40.804Z,100095.00
2019-04-14T10:06:46.222Z,100101.00
2019-04-14T10:08:51.467Z,100107.00
2019-04-14T10:10:57.124Z,100109.00
2019-04-14T10:13:02.964Z,100109.00
2019-04-14T10:15:08.864Z,100104.00
2019-04-14T10:17:14.326Z,100104.00
2019-04-14T10:19:19.353Z,100099.00
2019-04-14T10:21:24.748Z,100111.00
2019-04-14T10:23:30.020Z,100109.00
2019-04-14T10:25:35.411Z,100100.00
2019-04-14T10:27:40.816Z,100105.00
2019-04-14T10:29:46.520Z,100099.00
2019-04-14T10:31:52.144Z,100108.00
2019-04-14T10:33:57.113Z,100101.00
2019-04-14T10:36:02.553Z,100108.00
2019-04-14T10:38:08.281Z,100109.00
2019-04-14T10:40:14.079Z,100099.00
2019-04-14T10:42:19.751Z,100109.00
2019-04-14T10:44:25.798Z,100111.00
2019-04-14T10:46:31.988Z,100113.00
2019-04-14T10:48:37.583Z,100118.00
2019-04-14T10:50:43.112Z,100119.00
2019-04-14T10:52:48.453Z,100118.00
2019-04-14T10:54:53.503Z,100116.00
2019-04-14T10:57:01.013Z,100113.00
2019-04-14T10:59:05.775Z,100116.00
2019-04-14T11:01:12.352Z,100123.00
2019-04-14T11:03:17.981Z,100121.00
2019-04-14T11:05:24.428Z,100114.00
2019-04-14T11:07:31.442Z,100118.00
2019-04-14T11:09:36.966Z,100107.00
2019-04-14T11:11:42.066Z,100100.00
2019-04-14T11:13:47.224Z,100116.00
2019-04-14T11:15:53.040Z,100108.00
2019-04-14T11:17:58.502Z,100116.00
2019-04-14T11:20:03.645Z,100122.00
2019-04-14T11:22:09.403Z,100118.00
2019-04-14T11:24:14.807Z,100116.00
2019-04-14T11:26:20.093Z,100116.00
2019-04-14T11:28:25.496Z,100101.00
2019-04-14T11:30:30.983Z,100099.00
2019-04-14T11:33:07.835Z,100097.00
2019-04-14T11:35:18.332Z,100104.00
2019-04-14T11:37:45.540Z,100103.00
2019-04-14T11:39:50.916Z,100092.00
2019-04-14T11:41:57.014Z,100115.00
2019-04-14T11:44:02.841Z,100105.00
2019-04-14T11:46:08.494Z,100105.00
2019-04-14T11:48:13.795Z,100107.00
2019-04-14T11:50:18.868Z,100117.00
2019-04-14T11:52:23.816Z,100114.00
2019-04-14T11:54:29.284Z,100111.00
2019-04-14T11:56:34.456Z,100112.00
2019-04-14T11:58:39.870Z,100110.00
2019-04-14T12:01:13.370Z,100132.00
2019-04-14T12:03:25.353Z,100127.00
2019-04-14T12:05:40.553Z,100123.00
2019-04-14T12:07:51.861Z,100118.00
2019-04-14T12:10:15.091Z,100115.00
2019-04-14T12:12:20.276Z,100122.00
2019-04-14T12:14:25.807Z,100130.00
2019-04-14T12:16:31.141Z,100116.00
2019-04-14T12:18:36.863Z,100124.00
2019-04-14T12:20:42.401Z,100135.00
2019-04-14T12:22:47.897Z,100128.00
2019-04-14T12:24:53.634Z,100134.00
2019-04-14T12:26:59.425Z,100130.00
2019-04-14T12:29:06.322Z,100139.00
2019-04-14T12:31:13.132Z,100139.00
2019-04-14T12:33:18.260Z,100134.00
2019-04-14T12:35:24.239Z,100138.00
2019-04-14T12:37:29.700Z,100137.00
2019-04-14T12:39:34.720Z,100143.00
2019-04-14T12:41:44.851Z,100134.00
2019-04-14T12:44:07.639Z,100134.00
2019-04-14T12:46:34.704Z,100144.00
2019-04-14T12:48:51.550Z,100138.00
2019-04-14T12:51:20.545Z,100141.00
2019-04-14T12:53:25.643Z,100140.00
2019-04-14T12:55:31.150Z,100148.00
2019-04-14T12:57:46.129Z,100141.00
2019-04-14T12:59:51.415Z,100146.00
2019-04-14T13:02:11.213Z,100146.00
2019-04-14T13:04:16.828Z,100138.00
2019-04-14T13:06:22.112Z,100134.00
2019-04-14T13:08:27.441Z,100137.00
2019-04-14T13:10:32.634Z,100137.00
2019-04-14T13:12:38.079Z,100136.00
2019-04-14T13:14:43.959Z,100133.00
2019-04-14T13:16:48.992Z,100137.00
2019-04-14T13:18:57.628Z,100136.00
2019-04-14T13:21:04.063Z,100125.00
2019-04-14T13:23:09.653Z,100135.00
2019-04-14T13:25:15.122Z,100136.00
2019-04-14T13:27:23.258Z,100126.00
2019-04-14T13:29:28.595Z,100121.00
2019-04-14T13:31:33.689Z,100122.00
2019-04-14T13:33:38.798Z,100125.00
2019-04-14T13:35:44.920Z,100125.00
2019-04-14T13:37:50.451Z,100125.00
2019-04-14T13:39:55.634Z,100127.00
2019-04-14T13:42:01.238Z,100123.00
2019-04-14T13:44:06.455Z,100127.00
2019-04-14T13:46:11.979Z,100133.00
2019-04-14T13:48:17.465Z,100126.00
2019-04-14T13:50:22.814Z,100120.00
2019-04-14T13:52:30.798Z,100129.00
2019-04-14T13:54:35.375Z,100125.00
2019-04-14T13:56:40.851Z,100134.00
2019-04-14T13:58:46.488Z,100135.00
2019-04-14T14:00:51.570Z,100125.00
2019-04-14T14:02:56.755Z,100129.00
2019-04-14T14:05:01.900Z,100131.00
2019-04-14T14:07:07.495Z,100131.00
2019-04-14T14:09:13.360Z,100119.00
2019-04-14T14:11:46.491Z,100124.00
2019-04-14T14:13:57.738Z,100122.00
2019-04-14T14:16:25.520Z,100111.00
2019-04-14T14:18:44.915Z,100115.00
2019-04-14T14:21:18.698Z,100108.00
2019-04-14T14:23:42.079Z,100106.00
2019-04-14T14:25:50.803Z,100111.00
2019-04-14T14:27:56.332Z,100116.00
2019-04-14T14:30:01.897Z,100102.00
2019-04-14T14:32:12.390Z,100112.00
2019-04-14T14:34:18.174Z,100112.00
2019-04-14T14:36:23.676Z,100113.00
2019-04-14T14:38:28.702Z,100106.00
2019-04-14T14:40:34.149Z,100106.00
2019-04-14T14:42:39.632Z,100100.00
2019-04-14T14:44:50.450Z,100105.00
2019-04-14T14:47:00.716Z,100104.00
2019-04-14T14:49:13.035Z,100110.00
2019-04-14T14:51:36.474Z,100109.00
2019-04-14T14:53:41.578Z,100109.00
2019-04-14T14:55:47.289Z,100098.00
2019-04-14T14:57:53.036Z,100108.00
2019-04-14T14:59:58.699Z,100110.00
2019-04-14T15:02:04.577Z,100102.00
2019-04-14T15:04:10.007Z,100105.00
2019-04-14T15:06:15.113Z,100102.00
2019-04-14T15:08:20.936Z,100097.00
2019-04-14T15:10:26.309Z,100118.00
2019-04-14T15:12:31.776Z,100112.00
2019-04-14T15:14:36.842Z,100108.00
2019-04-14T15:16:41.930Z,100110.00
2019-04-14T15:18:48.068Z,100109.00
2019-04-14T15:20:53.316Z,100110.00
2019-04-14T15:22:59.286Z,100107.00
2019-04-14T15:25:04.850Z,100108.00
2019-04-14T15:27:10.024Z,100117.00
2019-04-14T15:29:15.938Z,100129.00
2019-04-14T15:31:21.436Z,100127.00
2019-04-14T15:33:26.886Z,100126.00
2019-04-14T15:35:32.567Z,100115.00
2019-04-14T15:37:38.082Z,100122.00
2019-04-14T15:39:43.759Z,100127.00
2019-04-14T15:41:49.192Z,100120.00
2019-04-14T15:43:54.924Z,100125.00
2019-04-14T15:45:59.934Z,100138.00
2019-04-14T15:48:05.527Z,100147.00
2019-04-14T15:50:11.082Z,100137.00
2019-04-14T15:52:16.395Z,100130.00
2019-04-14T15:54:22.119Z,100133.00
2019-04-14T15:56:43.834Z,100131.00
2019-04-14T15:58:55.726Z,100134.00
2019-04-14T16:01:33.142Z,100135.00
2019-04-14T16:03:56.811Z,100137.00
2019-04-14T16:06:20.074Z,100143.00
2019-04-14T16:08:44.361Z,100149.00
2019-04-14T16:11:03.820Z,100144.00
2019-04-14T16:13:16.182Z,100147.00
2019-04-14T16:15:42.993Z,100144.00
2019-04-14T16:18:06.698Z,100150.00
2019-04-14T16:20:15.517Z,100158.00
2019-04-14T16:22:21.300Z,100158.00
2019-04-14T16:24:26.353Z,100163.00
2019-04-14T16:26:42.020Z,100159.00
2019-04-14T16:28:54.393Z,100159.00
2019-04-14T16:31:11.946Z,100168.00
2019-04-14T16:33:21.093Z,100168.00
2019-04-14T16:35:28.354Z,100171.00
2019-04-14T16:37:33.806Z,100163.00
2019-04-14T16:39:38.978Z,100169.00
2019-04-14T16:41:44.731Z,100173.00
2019-04-14T16:43:49.903Z,100172.00
2019-04-14T16:45:55.331Z,100175.00
2019-04-14T16:48:01.095Z,100172.00
2019-04-14T16:50:06.928Z,100181.00
2019-04-14T16:52:28.611Z,100176.00
2019-04-14T16:54:55.823Z,100188.00
2019-04-14T16:57:19.037Z,100189.00
2019-04-14T16:59:25.224Z,100184.00
2019-04-14T17:01:39.235Z,100190.00
2019-04-14T17:03:44.239Z,100195.00
2019-04-14T17:05:49.495Z,100208.00
2019-04-14T17:07:55.130Z,100207.00
2019-04-14T17:10:00.146Z,100209.00
2019-04-14T17:12:05.953Z,100216.00
2019-04-14T17:14:22.451Z,100219.00
2019-04-14T17:16:38.424Z,100222.00
2019-04-14T17:18:48.417Z,100217.00
2019-04-14T17:21:09.624Z,100211.00
2019-04-14T17:23:33.114Z,100228.00
2019-04-14T17:25:53.816Z,100232.00
2019-04-14T17:28:17.397Z,100231.00
2019-04-14T17:30:28.458Z,100226.00
2019-04-14T17:32:48.975Z,100233.00
2019-04-14T17:35:01.892Z,100244.00
2019-04-14T17:37:13.615Z,100239.00
2019-04-14T17:39:31.712Z,100238.00
2019-04-14T17:41:42.491Z,100238.00
2019-04-14T17:43:54.988Z,100239.00
2019-04-14T17:46:29.783Z,100241.00
2019-04-14T17:48:52.578Z,100247.00
2019-04-14T17:51:05.338Z,100243.00
2019-04-14T17:53:35.454Z,100250.00
2019-04-14T17:55:52.469Z,100249.00
2019-04-14T17:58:22.743Z,100268.00
2019-04-14T18:00:43.819Z,100271.00
2019-04-14T18:03:20.669Z,100266.00
2019-04-14T18:05:33.816Z,100274.00
2019-04-14T18:08:02.869Z,100271.00
2019-04-14T18:10:17.537Z,100265.00
2019-04-14T18:12:47.901Z,100268.00
2019-04-14T18:15:01.919Z,100264.00
2019-04-14T18:17:33.693Z,100268.00
2019-04-14T18:19:45.915Z,100264.00
2019-04-14T18:21:52.100Z,100267.00
2019-04-14T18:23:57.557Z,100265.00
2019-04-14T18:26:02.655Z,100272.00
2019-04-14T18:28:32.959Z,100274.00
2019-04-14T18:30:43.839Z,100262.00
2019-04-14T18:33:03.709Z,100265.00
2019-04-14T18:35:16.426Z,100276.00
2019-04-14T18:37:40.829Z,100277.00
2019-04-14T18:40:08.049Z,100270.00
2019-04-14T18:42:18.660Z,100282.00
2019-04-14T18:44:34.634Z,100284.00
2019-04-14T18:46:45.665Z,100276.00
2019-04-14T18:48:59.580Z,100287.00
2019-04-14T18:51:27.931Z,100286.00
2019-04-14T18:53:44.597Z,100291.00
2019-04-14T18:55:53.545Z,100286.00
2019-04-14T18:58:12.909Z,100282.00
2019-04-14T19:00:43.441Z,100293.00
2019-04-14T19:02:49.052Z,100290.00
2019-04-14T19:04:54.349Z,100289.00
2019-04-14T19:06:59.545Z,100287.00
2019-04-14T19:09:07.468Z,100282.00
2019-04-14T19:11:27.687Z,100288.00
2019-04-14T19:13:33.106Z,100289.00
2019-04-14T19:15:57.485Z,100295.00
2019-04-14T19:18:15.672Z,100298.00
2019-04-14T19:20:21.900Z,100288.00
2019-04-14T19:22:27.368Z,100290.00
2019-04-14T19:24:32.724Z,100296.00
2019-04-14T19:26:38.640Z,100301.00
2019-04-14T19:28:43.653Z,100286.00
2019-04-14T19:30:48.991Z,100297.00
2019-04-14T19:32:54.095Z,100295.00
2019-04-14T19:34:59.415Z,100306.00
2019-04-14T19:37:04.896Z,100310.00
2019-04-14T19:39:11.046Z,100311.00
2019-04-14T19:41:16.232Z,100312.00
2019-04-14T19:43:23.922Z,100317.00
2019-04-14T19:45:29.145Z,100325.00
2019-04-14T19:47:34.245Z,100324.00
2019-04-14T19:49:39.832Z,100315.00
2019-04-14T19:51:45.324Z,100334.00
2019-04-14T19:53:50.363Z,100323.00
2019-04-14T19:55:55.761Z,100333.00
2019-04-14T19:58:01.326Z,100325.00
2019-04-14T20:00:07.800Z,100331.00
2019-04-14T20:02:13.006Z,100332.00
2019-04-14T20:04:18.837Z,100335.00
2019-04-14T20:06:23.989Z,100332.00
2019-04-14T20:08:29.504Z,100342.00
2019-04-14T20:10:34.812Z,100341.00
2019-04-14T20:12:40.966Z,100342.00
2019-04-14T20:14:46.134Z,100345.00
2019-04-14T20:17:09.298Z,100342.00
2019-04-14T20:19:36.559Z,100351.00
2019-04-14T20:21:59.774Z,100357.00
2019-04-14T20:24:23.949Z,100357.00
2019-04-14T20:27:00.501Z,100354.00
2019-04-14T20:29:25.286Z,100357.00
2019-04-14T20:31:42.927Z,100367.00
2019-04-14T20:33:47.870Z,100368.00
2019-04-14T20:35:53.538Z,100376.00
2019-04-14T20:37:58.866Z,100372.00
2019-04-14T20:40:04.212Z,100371.00
2019-04-14T20:42:09.704Z,100374.00
2019-04-14T20:44:14.943Z,100377.00
2019-04-14T20:46:20.726Z,100374.00
2019-04-14T20:48:26.133Z,100384.00
2019-04-14T20:50:31.751Z,100373.00
2019-04-14T20:52:37.212Z,100371.00
2019-04-14T20:54:42.643Z,100366.00
2019-04-14T20:56:47.686Z,100371.00
2019-04-14T20:58:52.677Z,100373.00
2019-04-14T21:00:57.839Z,100366.00
2019-04-14T21:03:15.264Z,100362.00
2019-04-14T21:05:38.150Z,100358.00
2019-04-14T21:07:55.711Z,100366.00
2019-04-14T21:10:16.264Z,100363.00
2019-04-14T21:12:31.958Z,100370.00
2019-04-14T21:14:45.577Z,100370.00
2019-04-14T21:17:07.566Z,100370.00
2019-04-14T21:19:19.630Z,100377.00
2019-04-14T21:21:47.076Z,100371.00
2019-04-14T21:23:58.065Z,100381.00
2019-04-14T21:26:08.757Z,100378.00
2019-04-14T21:28:38.461Z,100372.00
2019-04-14T21:31:01.455Z,100370.00
2019-04-14T21:33:15.204Z,100383.00
2019-04-14T21:35:27.116Z,100384.00
2019-04-14T21:37:51.436Z,100375.00
2019-04-14T21:40:18.201Z,100378.00
2019-04-14T21:42:23.609Z,100379.00
2019-04-14T21:44:28.848Z,100381.00
2019-04-14T21:46:34.173Z,100371.00
2019-04-14T21:48:39.304Z,100357.00
2019-04-14T21:50:44.487Z,100353.00
2019-04-14T21:52:50.159Z,100359.00
2019-04-14T21:54:55.419Z,100366.00
2019-04-14T21:57:18.690Z,100364.00
2019-04-14T21:59:28.497Z,100372.00
2019-04-14T22:01:55.712Z,100370.00
2019-04-14T22:04:29.028Z,100374.00
2019-04-14T22:06:43.747Z,100369.00
2019-04-14T22:08:50.562Z,100379.00
2019-04-14T22:10:58.597Z,100373.00
2019-04-14T22:13:10.165Z,100372.00
2019-04-14T22:15:15.573Z,100380.00
2019-04-14T22:17:22.246Z,100365.00
2019-04-14T22:19:27.283Z,100353.00
2019-04-14T22:21:32.512Z,100364.00
2019-04-14T22:23:37.928Z,100356.00
2019-04-14T22:25:43.337Z,100351.00
2019-04-14T22:27:49.050Z,100351.00
2019-04-14T22:29:54.966Z,100349.00
2019-04-14T22:32:00.275Z,100341.00
2019-04-14T22:34:05.843Z,100345.00
2019-04-14T22:36:11.009Z,100338.00
2019-04-14T22:38:16.507Z,100341.00
2019-04-14T22:40:21.710Z,100349.00
2019-04-14T22:42:27.026Z,100349.00
2019-04-14T22:44:32.495Z,100353.00
2019-04-14T22:46:38.517Z,100364.00
2019-04-14T22:48:43.600Z,100365.00
2019-04-14T22:50:49.009Z,100364.00
2019-04-14T22:52:54.618Z,100355.00
2019-04-14T22:54:59.984Z,100355.00
2019-04-14T22:57:05.388Z,100366.00
2019-04-14T22:59:11.048Z,100359.00
2019-04-14T23:01:21.890Z,100361.00
2019-04-14T23:03:44.875Z,100360.00
2019-04-14T23:06:02.029Z,100349.00
2019-04-14T23:08:13.888Z,100359.00
2019-04-14T23:10:36.649Z,100354.00
2019-04-14T23:13:00.286Z,100359.00
2019-04-14T23:15:28.454Z,100358.00
2019-04-14T23:17:37.499Z,100356.00
2019-04-14T23:20:01.900Z,100361.00
2019-04-14T23:22:18.095Z,100361.00
2019-04-14T23:24:26.822Z,100371.00
2019-04-14T23:26:32.328Z,100367.00
2019-04-14T23:28:37.717Z,100373.00
2019-04-14T23:30:43.493Z,100379.00
2019-04-14T23:32:49.112Z,100379.00
2019-04-14T23:34:54.121Z,100370.00
2019-04-14T23:36:59.272Z,100384.00
2019-04-14T23:39:08.688Z,100378.00
2019-04-14T23:41:14.678Z,100375.00
2019-04-14T23:43:20.223Z,100376.00
2019-04-14T23:45:26.155Z,100374.00
2019-04-14T23:47:31.514Z,100373.00
2019-04-14T23:49:37.208Z,100367.00
2019-04-14T23:51:43.230Z,100367.00
2019-04-14T23:53:48.892Z,100363.00
2019-04-14T23:55:54.637Z,100362.00
2019-04-14T23:58:00.366Z,100360.00
